createdAt,value
2019-04-22T00:00:16.241Z,14.7
2019-04-22T00:01:19.776Z,14.7
2019-04-22T00:02:17.061Z,14.6
2019-04-22T00:03:19.996Z,14.7
2019-04-22T00:04:33.793Z,14.6
2019-04-22T00:06:48.390Z,14.5
2019-04-22T00:07:48.322Z,14.4
2019-04-22T00:08:49.275Z,14.4
2019-04-22T00:09:53.030Z,14.4
2019-04-22T00:10:54.494Z,14.3
2019-04-22T00:11:54.581Z,14.4
2019-04-22T00:12:52.943Z,14.3
2019-04-22T00:13:59.551Z,14.2
2019-04-22T00:14:52.497Z,14.2
2019-04-22T00:15:56.533Z,14.2
2019-04-22T00:17:00.454Z,14.2
2019-04-22T00:18:11.607Z,14.2
2019-04-22T00:19:57.621Z,14.1
2019-04-22T00:20:06.063Z,14.2
2019-04-22T00:21:04.891Z,14.1
2019-04-22T00:22:07.703Z,14.1
2019-04-22T00:23:03.635Z,14.1
2019-04-22T00:24:12.093Z,13.9
2019-04-22T00:25:14.444Z,13.9
2019-04-22T00:26:16.423Z,13.9
2019-04-22T00:27:13.808Z,13.8
2019-04-22T00:28:15.736Z,13.7
2019-04-22T00:29:40.216Z,13.8
2019-04-22T00:30:28.177Z,13.8
2019-04-22T00:31:19.229Z,13.8
2019-04-22T00:32:19.396Z,13.7
2019-04-22T00:33:20.453Z,13.7
2019-04-22T00:34:20.897Z,13.7
2019-04-22T00:35:18.313Z,13.6
2019-04-22T00:36:23.587Z,13.5
2019-04-22T00:37:28.877Z,13.5
2019-04-22T00:38:33.840Z,13.4
2019-04-22T00:39:37.281Z,13.5
2019-04-22T00:40:38.377Z,13.4
2019-04-22T00:41:40.922Z,13.4
2019-04-22T00:42:36.044Z,13.4
2019-04-22T00:43:32.993Z,13.4
2019-04-22T00:44:38.811Z,13.4
2019-04-22T00:45:40.079Z,13.3
2019-04-22T00:46:39.937Z,13.4
2019-04-22T00:47:37.967Z,13.3
2019-04-22T00:48:44.479Z,13.2
2019-04-22T00:50:48.219Z,13.2
2019-04-22T00:51:52.778Z,13.1
2019-04-22T00:52:50.922Z,13.2
2019-04-22T00:53:48.209Z,13.1
2019-04-22T00:54:56.795Z,13.1
2019-04-22T00:55:57.215Z,13.1
2019-04-22T00:56:50.822Z,13.1
2019-04-22T00:58:00.098Z,13.0
2019-04-22T00:58:56.560Z,13.1
2019-04-22T01:00:01.415Z,13.0
2019-04-22T01:01:04.750Z,13.0
2019-04-22T01:02:00.709Z,13.1
2019-04-22T01:03:03.104Z,12.9
2019-04-22T01:04:07.149Z,12.9
2019-04-22T01:05:04.033Z,12.9
2019-04-22T01:06:03.063Z,12.9
2019-04-22T01:07:09.342Z,12.9
2019-04-22T01:08:09.767Z,12.8
2019-04-22T01:09:23.490Z,12.8
2019-04-22T01:10:12.702Z,12.8
2019-04-22T01:11:16.917Z,12.8
2019-04-22T01:12:15.600Z,12.7
2019-04-22T01:13:11.386Z,12.8
2019-04-22T01:14:17.839Z,12.7
2019-04-22T01:15:17.451Z,12.7
2019-04-22T01:16:17.744Z,12.6
2019-04-22T01:17:19.633Z,12.6
2019-04-22T01:18:16.031Z,12.6
2019-04-22T01:19:23.567Z,12.6
2019-04-22T01:20:45.461Z,12.6
2019-04-22T01:21:29.031Z,12.5
2019-04-22T01:22:21.391Z,12.5
2019-04-22T01:23:26.293Z,12.5
2019-04-22T01:24:29.419Z,12.5
2019-04-22T01:25:23.691Z,12.4
2019-04-22T01:26:25.430Z,12.3
2019-04-22T01:27:22.109Z,12.4
2019-04-22T01:28:23.451Z,12.3
2019-04-22T01:29:22.604Z,12.2
2019-04-22T01:30:23.272Z,12.3
2019-04-22T01:31:19.612Z,12.2
2019-04-22T01:32:22.722Z,12.2
2019-04-22T01:33:23.787Z,12.1
2019-04-22T01:34:33.535Z,12.2
2019-04-22T01:35:28.688Z,12.1
2019-04-22T01:36:35.347Z,12.1
2019-04-22T01:37:43.296Z,12.0
2019-04-22T01:38:45.499Z,12.0
2019-04-22T01:39:50.449Z,12.0
2019-04-22T01:40:52.800Z,12.0
2019-04-22T01:42:01.301Z,11.9
2019-04-22T01:42:55.789Z,12.0
2019-04-22T01:43:59.022Z,12.0
2019-04-22T01:44:52.152Z,12.0
2019-04-22T01:46:02.518Z,11.8
2019-04-22T01:46:56.859Z,11.8
2019-04-22T01:48:00.852Z,11.8
2019-04-22T01:48:59.534Z,11.9
2019-04-22T01:49:59.817Z,11.7
2019-04-22T01:51:01.359Z,11.7
2019-04-22T01:52:04.769Z,11.7
2019-04-22T01:53:11.747Z,11.7
2019-04-22T01:54:12.309Z,11.7
2019-04-22T01:56:15.864Z,11.6
2019-04-22T01:57:10.942Z,11.5
2019-04-22T01:58:08.211Z,11.6
2019-04-22T01:59:05.205Z,11.6
2019-04-22T02:00:06.820Z,11.6
2019-04-22T02:01:22.223Z,11.6
2019-04-22T02:02:19.081Z,11.6
2019-04-22T02:03:20.666Z,11.6
2019-04-22T02:04:26.634Z,11.6
2019-04-22T02:05:24.404Z,11.6
2019-04-22T02:06:30.501Z,11.6
2019-04-22T02:07:25.420Z,11.6
2019-04-22T02:08:44.925Z,11.6
2019-04-22T02:09:31.126Z,11.5
2019-04-22T02:10:36.254Z,11.6
2019-04-22T02:11:39.051Z,11.7
2019-04-22T02:12:36.837Z,11.7
2019-04-22T02:13:36.651Z,11.7
2019-04-22T02:14:39.628Z,11.7
2019-04-22T02:15:38.020Z,11.7
2019-04-22T02:16:41.642Z,11.7
2019-04-22T02:18:01.363Z,11.6
2019-04-22T02:19:00.879Z,11.6
2019-04-22T02:19:54.887Z,11.6
2019-04-22T02:20:45.476Z,11.6
2019-04-22T02:21:42.509Z,11.6
2019-04-22T02:23:00.428Z,11.5
2019-04-22T02:25:56.381Z,11.5
2019-04-22T02:26:51.964Z,11.5
2019-04-22T02:27:56.550Z,11.5
2019-04-22T02:29:09.173Z,11.5
2019-04-22T02:29:51.927Z,11.5
2019-04-22T02:33:25.131Z,11.4
2019-04-22T02:35:10.922Z,11.3
2019-04-22T02:37:13.387Z,11.4
2019-04-22T02:38:29.228Z,11.4
2019-04-22T02:41:23.107Z,11.3
2019-04-22T02:44:26.357Z,11.2
2019-04-22T02:45:34.092Z,11.2
2019-04-22T02:47:20.780Z,11.1
2019-04-22T02:48:53.809Z,11.1
2019-04-22T02:49:39.845Z,11.2
2019-04-22T02:50:43.425Z,11.1
2019-04-22T02:52:34.829Z,11.2
2019-04-22T02:54:02.073Z,11.2
2019-04-22T02:55:40.884Z,11.2
2019-04-22T02:56:35.994Z,11.3
2019-04-22T02:57:47.104Z,11.2
2019-04-22T02:59:39.280Z,11.2
2019-04-22T03:00:54.149Z,11.1
2019-04-22T03:01:44.845Z,11.2
2019-04-22T03:03:09.154Z,11.1
2019-04-22T03:04:04.394Z,11.2
2019-04-22T03:04:53.716Z,11.1
2019-04-22T03:05:56.810Z,11.1
2019-04-22T03:06:56.185Z,11.0
2019-04-22T03:07:58.629Z,11.1
2019-04-22T03:09:00.997Z,11.1
2019-04-22T03:09:52.636Z,11.1
2019-04-22T03:12:11.526Z,11.0
2019-04-22T03:13:06.658Z,11.1
2019-04-22T03:14:00.766Z,11.1
2019-04-22T03:15:06.302Z,11.1
2019-04-22T03:16:57.415Z,11.1
2019-04-22T03:20:11.496Z,11.4
2019-04-22T03:21:10.514Z,11.5
2019-04-22T03:22:16.731Z,11.4
2019-04-22T03:27:16.283Z,11.3
2019-04-22T03:28:27.422Z,11.3
2019-04-22T03:29:18.141Z,11.3
2019-04-22T03:31:53.664Z,11.4
2019-04-22T03:33:52.332Z,11.2
2019-04-22T03:37:48.117Z,11.3
2019-04-22T03:38:54.801Z,11.3
2019-04-22T03:39:45.643Z,11.2
2019-04-22T03:40:52.719Z,11.2
2019-04-22T03:41:57.334Z,11.2
2019-04-22T03:42:48.595Z,11.1
2019-04-22T03:44:10.234Z,11.0
2019-04-22T03:45:40.095Z,11.1
2019-04-22T03:46:53.169Z,11.2
2019-04-22T03:47:54.308Z,11.1
2019-04-22T03:48:59.769Z,11.0
2019-04-22T03:49:56.467Z,11.0
2019-04-22T03:51:01.880Z,11.0
2019-04-22T03:52:10.725Z,10.9
2019-04-22T03:54:03.525Z,11.0
2019-04-22T03:55:15.748Z,10.9
2019-04-22T03:56:10.309Z,11.0
2019-04-22T03:59:07.256Z,11.0
2019-04-22T04:00:15.564Z,11.0
2019-04-22T04:01:34.230Z,11.0
2019-04-22T04:04:17.889Z,10.9
2019-04-22T04:05:13.544Z,11.0
2019-04-22T04:06:22.250Z,10.9
2019-04-22T04:08:26.865Z,10.8
2019-04-22T04:09:23.947Z,10.9
2019-04-22T04:11:24.685Z,10.9
2019-04-22T04:12:38.536Z,10.9
2019-04-22T04:13:23.092Z,10.8
2019-04-22T04:14:26.876Z,10.8
2019-04-22T04:15:23.653Z,10.9
2019-04-22T04:16:30.692Z,10.9
2019-04-22T04:17:33.223Z,10.9
2019-04-22T04:18:36.401Z,11.0
2019-04-22T04:20:02.624Z,11.0
2019-04-22T04:21:34.816Z,11.0
2019-04-22T04:28:50.810Z,11.1
2019-04-22T04:30:42.331Z,11.1
2019-04-22T04:31:55.178Z,11.1
2019-04-22T04:32:55.193Z,11.1
2019-04-22T04:34:04.002Z,11.1
2019-04-22T04:35:53.028Z,11.1
2019-04-22T04:37:15.079Z,11.1
2019-04-22T04:41:04.388Z,11.1
2019-04-22T04:42:58.315Z,11.0
2019-04-22T04:44:23.539Z,11.1
2019-04-22T04:45:23.746Z,11.0
2019-04-22T04:47:11.649Z,11.0
2019-04-22T04:49:17.782Z,11.1
2019-04-22T04:55:26.712Z,11.1
2019-04-22T04:56:34.429Z,11.1
2019-04-22T04:57:43.550Z,11.1
2019-04-22T04:58:34.918Z,11.1
2019-04-22T04:59:42.004Z,11.1
2019-04-22T05:01:39.753Z,11.2
2019-04-22T05:02:40.928Z,11.1
2019-04-22T05:03:39.250Z,11.1
2019-04-22T05:05:31.711Z,11.1
2019-04-22T05:06:44.965Z,11.1
2019-04-22T05:09:03.795Z,11.0
2019-04-22T05:10:53.600Z,11.0
2019-04-22T05:12:01.362Z,10.9
2019-04-22T05:12:53.148Z,11.0
2019-04-22T05:14:46.478Z,11.0
2019-04-22T05:16:06.787Z,11.0
2019-04-22T05:16:47.694Z,11.0
2019-04-22T05:17:55.466Z,10.9
2019-04-22T05:18:50.955Z,11.0
2019-04-22T05:19:47.233Z,10.9
2019-04-22T05:20:59.663Z,11.0
2019-04-22T05:21:55.907Z,11.0
2019-04-22T05:22:51.623Z,11.0
2019-04-22T05:24:15.142Z,11.0
2019-04-22T05:24:58.340Z,11.0
2019-04-22T05:26:02.853Z,10.9
2019-04-22T05:27:08.745Z,11.0
2019-04-22T05:27:57.887Z,11.0
2019-04-22T05:29:08.545Z,11.0
2019-04-22T05:31:01.615Z,11.0
2019-04-22T05:32:01.192Z,11.0
2019-04-22T05:33:01.801Z,11.0
2019-04-22T05:34:19.564Z,11.0
2019-04-22T05:35:14.369Z,11.0
2019-04-22T05:36:13.251Z,11.0
2019-04-22T05:37:19.405Z,11.0
2019-04-22T05:39:11.477Z,11.0
2019-04-22T05:40:22.022Z,11.0
2019-04-22T05:41:16.286Z,11.0
2019-04-22T05:43:27.416Z,11.1
2019-04-22T05:44:47.764Z,11.0
2019-04-22T05:45:23.140Z,11.1
2019-04-22T05:46:26.678Z,11.0
2019-04-22T05:47:14.860Z,11.0
2019-04-22T05:48:27.462Z,11.3
2019-04-22T05:49:23.545Z,11.3
2019-04-22T05:50:22.824Z,11.4
2019-04-22T05:51:35.479Z,11.4
2019-04-22T05:52:31.659Z,11.4
2019-04-22T05:53:32.404Z,11.4
2019-04-22T05:54:34.787Z,11.4
2019-04-22T05:55:36.033Z,11.6
2019-04-22T05:57:03.318Z,11.5
2019-04-22T05:57:38.323Z,11.4
2019-04-22T05:58:46.501Z,11.4
2019-04-22T05:59:46.233Z,11.4
2019-04-22T06:01:14.408Z,11.5
2019-04-22T06:01:51.545Z,11.6
2019-04-22T06:03:50.917Z,11.7
2019-04-22T06:04:55.080Z,11.8
2019-04-22T06:05:49.007Z,11.9
2019-04-22T06:06:46.752Z,12.0
2019-04-22T06:07:58.705Z,12.0
2019-04-22T06:09:02.241Z,12.0
2019-04-22T06:10:03.042Z,12.0
2019-04-22T06:11:04.129Z,12.1
2019-04-22T06:11:53.215Z,12.1
2019-04-22T06:12:59.628Z,12.1
2019-04-22T06:13:55.972Z,12.1
2019-04-22T06:15:00.060Z,12.3
2019-04-22T06:15:58.723Z,12.3
2019-04-22T06:17:04.018Z,12.3
2019-04-22T06:18:14.770Z,12.3
2019-04-22T06:19:08.728Z,12.4
2019-04-22T06:20:13.738Z,12.4
2019-04-22T06:21:12.577Z,12.5
2019-04-22T06:22:16.876Z,12.7
2019-04-22T06:23:49.182Z,12.7
2019-04-22T06:24:18.698Z,12.8
2019-04-22T06:25:22.711Z,13.1
2019-04-22T06:26:29.222Z,13.3
2019-04-22T06:27:23.986Z,13.7
2019-04-22T06:28:29.146Z,13.7
2019-04-22T06:29:19.402Z,13.8
2019-04-22T06:30:20.638Z,14.1
2019-04-22T06:31:26.724Z,14.3
2019-04-22T06:33:26.112Z,14.8
2019-04-22T06:34:28.711Z,14.9
2019-04-22T06:35:36.408Z,15.2
2019-04-22T06:36:31.045Z,15.4
2019-04-22T06:37:35.039Z,15.4
2019-04-22T06:38:34.047Z,15.6
2019-04-22T06:39:34.386Z,15.8
2019-04-22T06:41:43.640Z,16.2
2019-04-22T06:42:42.996Z,16.5
2019-04-22T06:43:40.781Z,16.6
2019-04-22T06:44:49.785Z,16.8
2019-04-22T06:45:41.572Z,16.9
2019-04-22T06:46:47.703Z,17.1
2019-04-22T06:48:02.275Z,17.2
2019-04-22T06:48:49.157Z,17.3
2019-04-22T06:49:48.287Z,17.4
2019-04-22T06:50:50.453Z,17.5
2019-04-22T06:52:00.001Z,17.5
2019-04-22T06:52:56.802Z,17.6
2019-04-22T06:54:00.112Z,17.9
2019-04-22T06:54:59.336Z,18.0
2019-04-22T06:56:10.976Z,18.3
2019-04-22T06:57:00.761Z,18.3
2019-04-22T06:57:59.893Z,18.4
2019-04-22T06:58:57.773Z,18.4
2019-04-22T07:00:08.739Z,18.4
2019-04-22T07:01:04.208Z,18.5
2019-04-22T07:02:10.090Z,18.6
2019-04-22T07:04:03.373Z,18.6
2019-04-22T07:05:07.802Z,18.8
2019-04-22T07:06:12.668Z,18.9
2019-04-22T07:07:12.778Z,19.1
2019-04-22T07:10:29.301Z,19.2
2019-04-22T07:11:10.936Z,19.2
2019-04-22T07:13:23.400Z,19.5
2019-04-22T07:14:18.183Z,19.7
2019-04-22T07:16:29.905Z,20.1
2019-04-22T07:17:34.390Z,20.1
2019-04-22T07:18:31.179Z,20.3
2019-04-22T07:19:31.931Z,20.3
2019-04-22T07:20:34.782Z,20.3
2019-04-22T07:21:35.215Z,20.3
2019-04-22T07:22:37.973Z,20.5
2019-04-22T07:23:34.843Z,20.6
2019-04-22T07:25:35.055Z,20.8
2019-04-22T07:26:37.310Z,20.8
2019-04-22T07:27:44.620Z,21.0
2019-04-22T07:28:37.767Z,21.1
2019-04-22T07:29:46.725Z,21.2
2019-04-22T07:30:44.705Z,21.1
2019-04-22T07:31:52.657Z,21.1
2019-04-22T07:33:04.517Z,21.1
2019-04-22T07:34:08.227Z,21.1
2019-04-22T07:34:52.865Z,21.0
2019-04-22T07:36:12.617Z,21.1
2019-04-22T07:37:00.398Z,21.1
2019-04-22T07:37:55.616Z,21.2
2019-04-22T07:39:35.230Z,21.1
2019-04-22T07:40:40.614Z,21.2
2019-04-22T07:42:17.089Z,21.4
2019-04-22T07:43:19.676Z,21.5
2019-04-22T07:46:00.597Z,21.8
2019-04-22T07:47:13.964Z,22.1
2019-04-22T07:48:20.766Z,22.2
2019-04-22T07:49:16.598Z,22.1
2019-04-22T07:50:25.381Z,22.1
2019-04-22T07:51:16.837Z,22.1
2019-04-22T07:52:15.869Z,22.2
2019-04-22T07:53:17.279Z,22.3
2019-04-22T07:54:24.326Z,22.1
2019-04-22T07:55:11.900Z,22.0
2019-04-22T07:56:11.874Z,21.7
2019-04-22T07:57:28.727Z,21.7
2019-04-22T07:58:24.131Z,22.0
2019-04-22T07:59:30.407Z,22.1
2019-04-22T08:00:29.719Z,22.2
2019-04-22T08:01:29.616Z,22.1
2019-04-22T08:02:32.027Z,22.0
2019-04-22T08:03:42.135Z,21.8
2019-04-22T08:04:52.852Z,21.8
2019-04-22T08:06:36.202Z,22.1
2019-04-22T08:07:34.440Z,22.1
2019-04-22T08:08:38.897Z,22.1
2019-04-22T08:09:47.629Z,22.0
2019-04-22T08:10:43.205Z,22.1
2019-04-22T08:12:47.783Z,22.1
2019-04-22T08:14:01.574Z,22.0
2019-04-22T08:14:45.622Z,21.8
2019-04-22T08:16:51.305Z,21.9
2019-04-22T08:19:00.744Z,21.7
2019-04-22T08:19:56.078Z,21.8
2019-04-22T08:20:56.773Z,22.0
2019-04-22T08:21:57.003Z,22.1
2019-04-22T08:23:07.445Z,22.1
2019-04-22T08:24:04.552Z,22.3
2019-04-22T08:25:00.298Z,22.5
2019-04-22T08:26:01.001Z,22.6
2019-04-22T08:27:08.909Z,22.6
2019-04-22T08:28:03.301Z,22.8
2019-04-22T08:29:05.645Z,23.0
2019-04-22T08:32:31.351Z,23.0
2019-04-22T08:33:15.980Z,22.9
2019-04-22T08:34:16.649Z,22.6
2019-04-22T08:35:20.265Z,22.4
2019-04-22T08:36:31.996Z,22.3
2019-04-22T08:39:23.151Z,22.5
2019-04-22T08:42:35.198Z,22.6
2019-04-22T08:43:32.571Z,22.7
2019-04-22T08:44:49.655Z,22.9
2019-04-22T08:45:36.047Z,23.1
2019-04-22T08:46:35.985Z,22.9
2019-04-22T08:47:31.203Z,22.9
2019-04-22T08:48:30.841Z,22.9
2019-04-22T08:49:45.596Z,23.0
2019-04-22T08:50:36.408Z,22.8
2019-04-22T08:51:36.242Z,23.0
2019-04-22T08:52:42.203Z,22.9
2019-04-22T08:53:53.738Z,23.0
2019-04-22T08:54:44.648Z,23.1
2019-04-22T08:55:49.230Z,23.3
2019-04-22T08:58:03.249Z,23.3
2019-04-22T08:58:50.770Z,23.4
2019-04-22T08:59:50.247Z,23.3
2019-04-22T09:01:01.077Z,23.1
2019-04-22T09:01:50.657Z,23.0
2019-04-22T09:02:54.067Z,23.1
2019-04-22T09:03:58.107Z,23.2
2019-04-22T09:04:53.461Z,23.2
2019-04-22T09:07:23.483Z,23.3
2019-04-22T09:08:02.096Z,23.3
2019-04-22T09:09:03.374Z,23.3
2019-04-22T09:10:01.686Z,23.4
2019-04-22T09:11:08.192Z,23.4
2019-04-22T09:12:07.918Z,23.3
2019-04-22T09:14:11.291Z,23.4
2019-04-22T09:15:15.923Z,23.4
2019-04-22T09:16:16.657Z,23.5
2019-04-22T09:17:17.403Z,23.3
2019-04-22T09:18:14.796Z,23.3
2019-04-22T09:19:12.591Z,23.3
2019-04-22T09:20:28.076Z,23.4
2019-04-22T09:21:32.645Z,23.4
2019-04-22T09:22:20.112Z,23.5
2019-04-22T09:23:23.552Z,23.6
2019-04-22T09:24:25.141Z,23.5
2019-04-22T09:25:26.985Z,23.2
2019-04-22T09:26:32.251Z,23.3
2019-04-22T09:27:34.880Z,23.4
2019-04-22T09:28:34.542Z,23.4
2019-04-22T09:29:39.769Z,23.6
2019-04-22T09:30:37.099Z,23.4
2019-04-22T09:31:29.045Z,23.4
2019-04-22T09:32:32.709Z,23.5
2019-04-22T09:33:31.551Z,23.6
2019-04-22T09:35:43.671Z,23.7
2019-04-22T09:36:45.872Z,23.7
2019-04-22T09:38:42.362Z,23.8
2019-04-22T09:39:41.547Z,23.8
2019-04-22T09:40:46.919Z,23.8
2019-04-22T09:41:48.352Z,23.9
2019-04-22T09:42:50.367Z,23.9
2019-04-22T09:43:55.014Z,23.9
2019-04-22T09:44:53.160Z,23.8
2019-04-22T09:45:54.452Z,23.8
2019-04-22T09:46:52.195Z,23.8
2019-04-22T09:49:00.283Z,23.7
2019-04-22T09:51:12.048Z,23.8
2019-04-22T09:52:01.479Z,23.9
2019-04-22T09:53:02.390Z,24.0
2019-04-22T09:54:08.985Z,23.8
2019-04-22T09:55:06.109Z,23.8
2019-04-22T09:56:08.283Z,23.9
2019-04-22T09:57:09.557Z,23.9
2019-04-22T09:58:09.343Z,23.8
2019-04-22T09:59:07.511Z,23.8
2019-04-22T10:00:15.450Z,23.8
2019-04-22T10:01:19.032Z,23.8
2019-04-22T10:03:16.630Z,24.0
2019-04-22T10:04:14.116Z,23.9
2019-04-22T10:05:22.547Z,23.9
2019-04-22T10:07:20.904Z,23.9
2019-04-22T10:08:31.638Z,24.0
2019-04-22T10:10:20.173Z,24.0
2019-04-22T10:11:34.325Z,24.1
2019-04-22T10:12:32.475Z,24.0
2019-04-22T10:13:34.644Z,24.1
2019-04-22T10:14:31.989Z,24.0
2019-04-22T10:15:32.300Z,24.0
2019-04-22T10:16:39.435Z,23.9
2019-04-22T10:17:32.017Z,24.0
2019-04-22T10:18:42.059Z,24.0
2019-04-22T10:19:39.253Z,24.0
2019-04-22T10:20:38.680Z,24.0
2019-04-22T10:21:46.331Z,23.9
2019-04-22T10:23:45.754Z,24.0
2019-04-22T10:24:45.025Z,24.0
2019-04-22T10:25:50.881Z,24.0
2019-04-22T10:26:43.882Z,23.9
2019-04-22T10:27:53.645Z,23.9
2019-04-22T10:28:55.809Z,24.0
2019-04-22T10:29:54.033Z,23.9
2019-04-22T10:30:52.207Z,23.9
2019-04-22T10:31:55.828Z,24.0
2019-04-22T10:32:52.664Z,23.9
2019-04-22T10:33:49.503Z,23.9
2019-04-22T10:34:41.146Z,23.9
2019-04-22T10:35:34.579Z,24.1
2019-04-22T10:36:37.705Z,24.3
2019-04-22T10:37:38.405Z,24.3
2019-04-22T10:38:38.478Z,24.2
2019-04-22T10:39:47.129Z,24.3
2019-04-22T10:40:42.686Z,24.2
2019-04-22T10:41:42.552Z,24.2
2019-04-22T10:42:45.166Z,24.0
2019-04-22T10:43:45.353Z,24.0
2019-04-22T10:44:48.054Z,24.1
2019-04-22T10:45:48.089Z,24.1
2019-04-22T10:46:49.759Z,24.2
2019-04-22T10:47:52.213Z,24.3
2019-04-22T10:48:52.740Z,24.3
2019-04-22T10:49:54.144Z,24.4
2019-04-22T10:50:54.893Z,24.4
2019-04-22T10:51:56.123Z,24.5
2019-04-22T10:52:57.512Z,24.6
2019-04-22T10:53:59.638Z,24.5
2019-04-22T10:55:01.115Z,24.4
2019-04-22T10:56:03.013Z,24.4
2019-04-22T10:57:03.206Z,24.5
2019-04-22T10:58:04.399Z,24.5
2019-04-22T10:59:06.636Z,24.3
2019-04-22T11:00:06.978Z,24.2
2019-04-22T11:01:09.446Z,24.2
2019-04-22T11:02:09.826Z,24.2
2019-04-22T11:03:11.861Z,24.2
2019-04-22T11:04:13.287Z,24.4
2019-04-22T11:05:14.439Z,24.5
2019-04-22T11:06:15.206Z,24.6
2019-04-22T11:07:17.346Z,24.6
2019-04-22T11:08:24.311Z,24.5
2019-04-22T11:09:20.630Z,24.3
2019-04-22T11:10:35.500Z,24.2
2019-04-22T11:11:34.722Z,24.1
2019-04-22T11:12:26.535Z,23.9
2019-04-22T11:13:26.082Z,23.9
2019-04-22T11:14:26.571Z,23.8
2019-04-22T11:15:28.576Z,23.8
2019-04-22T11:16:29.699Z,23.8
2019-04-22T11:17:31.512Z,23.6
2019-04-22T11:18:31.653Z,23.6
2019-04-22T11:19:32.877Z,23.6
2019-04-22T11:20:35.713Z,23.6
2019-04-22T11:21:35.978Z,23.6
2019-04-22T11:22:37.360Z,23.6
2019-04-22T11:23:38.658Z,23.6
2019-04-22T11:24:41.066Z,23.6
2019-04-22T11:25:41.613Z,23.5
2019-04-22T11:26:43.159Z,23.6
2019-04-22T11:27:44.435Z,23.6
2019-04-22T11:28:45.509Z,23.6
2019-04-22T11:29:47.645Z,23.7
2019-04-22T11:30:48.232Z,23.8
2019-04-22T11:31:50.330Z,23.8
2019-04-22T11:32:50.696Z,23.9
2019-04-22T11:33:52.470Z,23.9
2019-04-22T11:34:53.853Z,24.0
2019-04-22T11:35:55.494Z,23.9
2019-04-22T11:36:56.741Z,24.0
2019-04-22T11:37:57.113Z,24.0
2019-04-22T11:39:02.004Z,24.1
2019-04-22T11:40:06.769Z,24.1
2019-04-22T11:41:01.891Z,24.1
2019-04-22T11:42:02.531Z,24.1
2019-04-22T11:43:04.025Z,24.2
2019-04-22T11:44:05.417Z,24.2
2019-04-22T11:45:06.589Z,24.0
2019-04-22T11:46:09.243Z,24.0
2019-04-22T11:47:09.679Z,24.0
2019-04-22T11:48:11.177Z,24.1
2019-04-22T11:49:12.109Z,24.1
2019-04-22T11:50:13.337Z,24.0
2019-04-22T11:51:15.967Z,24.0
2019-04-22T11:52:17.295Z,24.0
2019-04-22T11:53:18.615Z,24.0
2019-04-22T11:54:18.897Z,24.1
2019-04-22T11:55:20.063Z,24.1
2019-04-22T11:56:22.863Z,24.1
2019-04-22T11:57:23.412Z,24.1
2019-04-22T11:58:24.623Z,24.1
2019-04-22T11:59:26.713Z,24.2
2019-04-22T12:00:27.019Z,24.2
2019-04-22T12:01:28.824Z,24.2
2019-04-22T12:02:31.071Z,24.2
2019-04-22T12:03:31.616Z,24.2
2019-04-22T12:04:32.173Z,24.1
2019-04-22T12:05:34.303Z,24.1
2019-04-22T12:06:35.840Z,24.0
2019-04-22T12:07:37.048Z,24.0
2019-04-22T12:08:37.512Z,24.0
2019-04-22T12:09:39.566Z,24.0
2019-04-22T12:10:46.824Z,24.0
2019-04-22T12:11:41.563Z,24.1
2019-04-22T12:12:44.806Z,24.1
2019-04-22T12:13:44.267Z,24.0
2019-04-22T12:14:45.867Z,24.0
2019-04-22T12:15:46.974Z,23.9
2019-04-22T12:16:49.629Z,24.0
2019-04-22T12:17:50.975Z,23.9
2019-04-22T12:18:51.176Z,23.9
2019-04-22T12:19:52.634Z,24.0
2019-04-22T12:20:55.266Z,24.0
2019-04-22T12:21:55.209Z,24.0
2019-04-22T12:22:56.729Z,24.0
2019-04-22T12:23:59.023Z,24.3
2019-04-22T12:25:00.348Z,24.3
2019-04-22T12:26:05.892Z,24.3
2019-04-22T12:27:02.222Z,24.3
2019-04-22T12:28:03.329Z,24.4
2019-04-22T12:29:04.760Z,24.4
2019-04-22T12:30:06.871Z,24.5
2019-04-22T12:31:07.120Z,24.5
2019-04-22T12:32:09.341Z,24.7
2019-04-22T12:33:11.673Z,24.7
2019-04-22T12:34:11.350Z,24.9
2019-04-22T12:35:13.539Z,24.9
2019-04-22T12:36:14.756Z,25.2
2019-04-22T12:37:23.641Z,25.3
2019-04-22T12:38:16.985Z,25.4
2019-04-22T12:39:17.968Z,25.4
2019-04-22T12:40:31.552Z,25.5
2019-04-22T12:41:21.539Z,25.6
2019-04-22T12:42:23.545Z,25.7
2019-04-22T12:43:24.600Z,25.6
2019-04-22T12:44:26.197Z,25.6
2019-04-22T12:45:26.637Z,25.6
2019-04-22T12:46:28.135Z,25.5
2019-04-22T12:47:30.418Z,25.7
2019-04-22T12:48:30.995Z,25.7
2019-04-22T12:49:32.203Z,25.9
2019-04-22T12:50:35.728Z,25.8
2019-04-22T12:51:34.179Z,25.8
2019-04-22T12:52:43.703Z,26.0
2019-04-22T12:53:37.958Z,26.1
2019-04-22T12:54:39.297Z,26.1
2019-04-22T12:55:39.752Z,26.1
2019-04-22T12:56:41.908Z,26.0
2019-04-22T12:57:42.816Z,25.8
2019-04-22T12:58:43.623Z,25.7
2019-04-22T12:59:45.727Z,25.7
2019-04-22T13:00:46.347Z,25.5
2019-04-22T13:01:48.915Z,25.4
2019-04-22T13:02:49.181Z,25.4
2019-04-22T13:03:50.424Z,25.4
2019-04-22T13:04:52.339Z,25.4
2019-04-22T13:05:53.895Z,25.3
2019-04-22T13:06:55.474Z,25.3
2019-04-22T13:07:55.930Z,25.2
2019-04-22T13:08:57.183Z,25.1
2019-04-22T13:09:59.245Z,25.0
2019-04-22T13:11:06.833Z,25.0
2019-04-22T13:12:01.309Z,24.9
2019-04-22T13:13:02.816Z,24.8
2019-04-22T13:14:04.958Z,24.8
2019-04-22T13:15:06.201Z,24.8
2019-04-22T13:16:06.982Z,24.9
2019-04-22T13:17:08.181Z,24.8
2019-04-22T13:18:19.034Z,24.9
2019-04-22T13:19:12.912Z,24.9
2019-04-22T13:20:15.098Z,24.9
2019-04-22T13:21:14.664Z,25.0
2019-04-22T13:22:14.711Z,25.0
2019-04-22T13:23:16.090Z,25.0
2019-04-22T13:24:19.870Z,25.1
2019-04-22T13:25:19.766Z,25.1
2019-04-22T13:26:21.024Z,25.2
2019-04-22T13:27:21.481Z,25.2
2019-04-22T13:28:23.023Z,25.4
2019-04-22T13:29:25.131Z,25.4
2019-04-22T13:30:26.312Z,25.4
2019-04-22T13:31:26.963Z,25.5
2019-04-22T13:32:28.948Z,25.5
2019-04-22T13:33:30.498Z,25.5
2019-04-22T13:34:39.726Z,25.4
2019-04-22T13:35:32.243Z,25.4
2019-04-22T13:36:34.573Z,25.2
2019-04-22T13:37:35.102Z,25.2
2019-04-22T13:39:16.730Z,25.2
2019-04-22T13:40:17.194Z,25.2
2019-04-22T13:41:54.553Z,25.1
2019-04-22T13:42:51.230Z,25.2
2019-04-22T13:43:53.758Z,25.2
2019-04-22T13:44:53.804Z,25.2
2019-04-22T13:45:56.036Z,25.1
2019-04-22T13:47:29.761Z,25.3
2019-04-22T13:48:16.877Z,25.1
2019-04-22T13:50:32.570Z,25.2
2019-04-22T13:51:33.929Z,25.4
2019-04-22T13:52:40.902Z,25.3
2019-04-22T13:53:48.004Z,25.4
2019-04-22T13:55:33.186Z,25.3
2019-04-22T13:56:30.448Z,25.3
2019-04-22T13:57:25.174Z,25.4
2019-04-22T13:58:24.362Z,25.4
2019-04-22T13:59:24.640Z,25.3
2019-04-22T14:00:14.468Z,25.4
2019-04-22T14:01:16.526Z,25.4
2019-04-22T14:02:18.749Z,25.4
2019-04-22T14:03:18.576Z,25.5
2019-04-22T14:04:20.576Z,25.6
2019-04-22T14:05:22.403Z,25.7
2019-04-22T14:06:22.739Z,25.8
2019-04-22T14:07:25.130Z,25.9
2019-04-22T14:08:26.867Z,25.9
2019-04-22T14:09:26.643Z,25.8
2019-04-22T14:10:28.014Z,25.8
2019-04-22T14:11:37.645Z,25.8
2019-04-22T14:12:30.801Z,25.7
2019-04-22T14:13:32.323Z,26.0
2019-04-22T14:14:33.721Z,26.0
2019-04-22T14:15:36.016Z,26.2
2019-04-22T14:16:37.122Z,26.1
2019-04-22T14:17:38.869Z,26.1
2019-04-22T14:18:39.060Z,26.3
2019-04-22T14:19:40.114Z,26.4
2019-04-22T14:20:42.802Z,26.5
2019-04-22T14:21:44.418Z,26.6
2019-04-22T14:22:44.483Z,26.7
2019-04-22T14:23:46.682Z,26.7
2019-04-22T14:24:46.939Z,26.7
2019-04-22T14:25:48.459Z,26.6
2019-04-22T14:26:58.935Z,26.4
2019-04-22T14:27:58.454Z,26.2
2019-04-22T14:28:53.443Z,26.1
2019-04-22T14:29:53.724Z,26.0
2019-04-22T14:30:54.996Z,26.0
2019-04-22T14:32:05.444Z,26.0
2019-04-22T14:32:58.022Z,26.1
2019-04-22T14:34:01.812Z,26.1
2019-04-22T14:35:00.772Z,26.2
2019-04-22T14:36:02.549Z,26.2
2019-04-22T14:37:03.571Z,26.3
2019-04-22T14:38:06.298Z,26.2
2019-04-22T14:39:05.978Z,26.4
2019-04-22T14:40:09.229Z,26.4
2019-04-22T14:41:10.163Z,26.4
2019-04-22T14:42:28.304Z,26.3
2019-04-22T14:44:51.538Z,26.3
2019-04-22T14:45:44.582Z,26.4
2019-04-22T14:46:38.927Z,26.4
2019-04-22T14:47:45.594Z,26.5
2019-04-22T14:48:46.439Z,26.5
2019-04-22T14:49:43.105Z,26.6
2019-04-22T14:50:41.998Z,26.6
2019-04-22T14:51:48.881Z,26.5
2019-04-22T14:52:48.869Z,26.4
2019-04-22T14:53:35.519Z,26.3
2019-04-22T14:54:37.653Z,26.1
2019-04-22T14:55:30.769Z,26.2
2019-04-22T14:56:30.442Z,26.0
2019-04-22T14:57:31.733Z,25.8
2019-04-22T14:58:32.923Z,25.7
2019-04-22T14:59:32.946Z,25.6
2019-04-22T15:00:35.736Z,25.5
2019-04-22T15:01:38.377Z,25.4
2019-04-22T15:02:37.518Z,25.3
2019-04-22T15:03:40.705Z,25.3
2019-04-22T15:04:39.701Z,25.2
2019-04-22T15:05:42.001Z,25.1
2019-04-22T15:06:45.148Z,25.2
2019-04-22T15:07:44.412Z,25.2
2019-04-22T15:08:45.216Z,25.2
2019-04-22T15:09:46.473Z,25.1
2019-04-22T15:10:47.807Z,25.1
2019-04-22T15:11:56.867Z,25.2
2019-04-22T15:12:53.412Z,25.2
2019-04-22T15:13:51.850Z,25.3
2019-04-22T15:14:53.400Z,25.3
2019-04-22T15:15:56.842Z,25.3
2019-04-22T15:16:57.178Z,25.3
2019-04-22T15:17:58.746Z,25.2
2019-04-22T15:18:59.933Z,25.3
2019-04-22T15:20:01.490Z,25.2
2019-04-22T15:21:02.622Z,25.1
2019-04-22T15:22:03.053Z,25.1